Airfield :
LOGIN :

Register | Disclaimer

   EN    FR    IT 

 










Legend :    VFR   Marginal VFR   IFR   Intensive IFR   Very Intensive IFR
Visi :
Ceiling :
>= 8 km
>= 3000ft
5 to 8 km
1000 to 3000 ft
1500m to 5 km
500 to 1000 ft
800 to 1500m
200 to 500 ft
< 800m
< 200 ft
Symbols :   Thunderstorms  Fog  Heavy snow  Heavy precipitations  Wind > 20 kt
SIGMETs :     Misc.  Thunderstorms  Icing  Turbulence  Mountain Waves  Volcanic Ashes







- Airport Elevation : 194 ft
- IATA code : ANE
- Download approach charts


LFJR - Angers Marcé

CURRENT METAR :
  • 220600Z AUTO 24017KT 9999 OVC006 12/12 Q1015 TEMPO 24020G35KT 2500 RADZ BKN004

EXPIRED METARs :
  • 220530Z AUTO 24016KT 8000 OVC007 12/11 Q1015
  • 220500Z AUTO 24016KT 9999 OVC007 12/11 Q1015
  • 220430Z AUTO 24015KT 9999 OVC006 12/11 Q1016
  • 220400Z AUTO 24017G29KT 9999 -DZ OVC007 12/11 Q1016
  • 220330Z AUTO 24016KT 9999 OVC007 12/11 Q1016

TAF TAF LFJR
Valid from the 22 at 06:00 until the 22 at 15:00 UTC


220500Z 2206/2215 24015G25KT 5000 -DZ BKN007
TEMPO 2206/2209 24020G35KT 2500 RADZ BKN004
BECMG 2209/2211 9999 BKN013
BECMG 2211/2213 SCT020
No reported NOTAMs for that airfield.
1 SIGMET reported for the Brest FIR (LFRR) :
 
Severe turbulence
LFRR SIGMET 1 VALID 220400/220800 LFPW
LFRR BREST FIR/UIR SEV TURB FCST WI N4630 W00800 - N4900 W00800 - N4915 W00700 - N4845 W00345 - N4700 W00315 - N4630 W00800 SFC/FL060 STNR INTSF=



MET'MAP, your aeronautical weather chart ! - Copyright ORBIFLY December 2007 - Disclaimer

ORBIFLY MET'MAP TEAM :

Programming & Development : Alexandra Zaïnal
Concept & Development : Baudouin d'Aumeries
Co-Development & Prog : Marc-Olivier Méhu
Technical & hardware support : Manuel Goepfert

Contact : metmap@orbifly.com




SOURCES & CREDITS :

   NOAA